Time;durP1;ratioP1;P1;durP2;ratioP2;P2;SDS_P1;SDS_P2;PMS_P1;PMS_P2;Temp;Humidity;BMP_temperature;BMP_pressure;BME280_temperature;BME280_humidity;BME280_pressure;Samples;Min_cycle;Max_cycle;Signal;HPM_P1;HPM_P2
2021/08/27 00:01:18;;;;;;;10.23;2.17;;;12.60;1.00;;;;;;5031917;28;20274;-62
2021/08/27 00:03:45;;;;;;;7.63;1.80;;;12.60;1.00;;;;;;5031769;28;20212;-62
2021/08/27 00:06:11;;;;;;;7.90;2.00;;;12.50;1.00;;;;;;5031719;28;20266;-61
2021/08/27 00:08:38;;;;;;;6.73;2.03;;;12.50;1.00;;;;;;5031667;28;20643;-61
2021/08/27 00:11:05;;;;;;;6.00;1.67;;;12.40;1.00;;;;;;5031674;28;20257;-62
2021/08/27 00:13:31;;;;;;;9.73;2.20;;;12.40;99.90;;;;;;5031313;28;20231;-62
2021/08/27 00:15:58;;;;;;;8.67;2.27;;;12.40;99.90;;;;;;5031736;28;20208;-61
2021/08/27 00:18:26;;;;;;;7.90;2.17;;;12.30;99.90;;;;;;5031762;28;20200;-62
2021/08/27 00:20:52;;;;;;;14.13;3.10;;;12.30;99.90;;;;;;5031498;28;20741;-62
2021/08/27 00:23:19;;;;;;;7.23;2.23;;;12.30;1.00;;;;;;5031476;28;20234;-62
2021/08/27 00:25:46;;;;;;;7.10;2.33;;;12.30;1.00;;;;;;5031927;28;20222;-61
2021/08/27 00:28:12;;;;;;;5.33;1.97;;;12.20;4.30;;;;;;5035141;28;20218;-61
2021/08/27 00:30:39;;;;;;;11.30;2.77;;;12.20;99.90;;;;;;5035549;28;20263;-62
2021/08/27 00:33:06;;;;;;;7.07;2.37;;;12.20;99.90;;;;;;5035385;28;20277;-62
2021/08/27 00:35:34;;;;;;;10.97;2.13;;;12.20;99.90;;;;;;5035236;28;20206;-62
2021/08/27 00:38:00;;;;;;;7.57;2.03;;;12.20;99.90;;;;;;5035136;28;20234;-61
2021/08/27 00:40:27;;;;;;;6.77;2.47;;;12.10;99.90;;;;;;5035094;28;20667;-62
2021/08/27 00:42:54;;;;;;;9.50;2.47;;;12.10;99.90;;;;;;5035129;28;20620;-62
2021/08/27 00:45:21;;;;;;;8.77;2.47;;;12.00;99.90;;;;;;5034904;28;20208;-61
2021/08/27 00:47:47;;;;;;;9.60;2.27;;;12.00;99.90;;;;;;5035063;28;20256;-62
2021/08/27 00:50:14;;;;;;;8.63;2.37;;;11.90;99.90;;;;;;5035097;28;20210;-62
2021/08/27 00:52:42;;;;;;;12.60;2.60;;;11.90;99.90;;;;;;5034847;28;20234;-62
2021/08/27 00:55:09;;;;;;;8.90;2.73;;;11.80;99.90;;;;;;5034613;28;20202;-62
2021/08/27 00:57:37;;;;;;;7.07;2.43;;;11.80;99.90;;;;;;5035169;28;20283;-62
2021/08/27 01:00:05;;;;;;;6.37;3.07;;;11.70;99.90;;;;;;5035156;28;20252;-61
2021/08/27 01:02:31;;;;;;;6.50;2.30;;;11.70;99.90;;;;;;5034757;28;20226;-62
2021/08/27 01:04:58;;;;;;;13.63;2.70;;;11.70;99.90;;;;;;5034517;28;20206;-62
2021/08/27 01:07:29;;;;;;;10.87;2.90;;;11.60;99.90;;;;;;5034766;28;20256;-61
2021/08/27 01:10:10;;;;;;;10.03;2.83;;;11.60;99.90;;;;;;5034449;28;20230;-61
2021/08/27 01:12:44;;;;;;;5.93;2.77;;;11.70;99.90;;;;;;5034745;28;20311;-62
2021/08/27 01:15:16;;;;;;;7.13;2.90;;;11.60;99.90;;;;;;5034704;28;20268;-62
2021/08/27 01:17:47;;;;;;;8.30;3.13;;;11.60;99.90;;;;;;5034730;28;20260;-62
2021/08/27 01:20:46;;;;;;;8.23;2.90;;;11.50;1.00;;;;;;5034357;28;20662;-61
2021/08/27 01:23:20;;;;;;;6.63;2.13;;;11.50;1.00;;;;;;5034824;28;20233;-62
2021/08/27 01:25:53;;;;;;;6.40;2.37;;;11.50;1.00;;;;;;5035561;28;20232;-62
2021/08/27 01:28:21;;;;;;;9.80;3.10;;;11.40;1.00;;;;;;5034360;28;20222;-61
2021/08/27 01:31:00;;;;;;;8.93;3.00;;;11.50;1.00;;;;;;5034092;28;20293;-62
2021/08/27 01:33:27;;;;;;;13.57;3.43;;;11.40;1.00;;;;;;5034051;28;20229;-62
2021/08/27 01:36:00;;;;;;;10.27;2.93;;;11.40;1.00;;;;;;5034352;28;20210;-62
2021/08/27 01:38:31;;;;;;;6.13;3.10;;;11.40;1.00;;;;;;5033021;28;20568;-62
2021/08/27 01:40:58;;;;;;;8.73;2.97;;;11.40;1.00;;;;;;5034006;28;20210;-62
2021/08/27 01:43:27;;;;;;;7.50;3.03;;;11.40;1.00;;;;;;5033968;28;20226;-62
2021/08/27 01:45:59;;;;;;;8.90;2.90;;;11.50;1.00;;;;;;5034208;28;20622;-61
2021/08/27 01:48:28;;;;;;;7.60;2.77;;;11.50;1.00;;;;;;5033979;28;20230;-62
2021/08/27 01:50:56;;;;;;;9.13;2.70;;;11.50;1.00;;;;;;5033911;28;20207;-61
2021/08/27 01:53:24;;;;;;;13.50;3.13;;;11.50;1.00;;;;;;5033448;28;20266;-62
2021/08/27 01:55:50;;;;;;;10.80;3.17;;;11.50;1.00;;;;;;5034286;28;20219;-62
2021/08/27 01:58:17;;;;;;;9.00;3.23;;;11.50;1.00;;;;;;5034003;28;20214;-62
2021/08/27 02:00:45;;;;;;;7.53;3.10;;;11.50;1.00;;;;;;5034077;28;20206;-62
2021/08/27 02:03:12;;;;;;;12.63;3.37;;;11.50;1.00;;;;;;5033903;28;20230;-62
2021/08/27 02:05:40;;;;;;;12.03;3.03;;;11.50;1.00;;;;;;5033734;28;20619;-62
2021/08/27 02:08:09;;;;;;;6.13;2.87;;;11.50;1.00;;;;;;5033462;28;20233;-61
2021/08/27 02:10:36;;;;;;;13.10;3.30;;;11.50;1.00;;;;;;5033925;28;20652;-62
2021/08/27 02:13:03;;;;;;;9.83;3.43;;;11.40;1.00;;;;;;5033492;28;20276;-62
2021/08/27 02:15:32;;;;;;;8.97;3.23;;;11.40;1.00;;;;;;5033169;28;20733;-62
2021/08/27 02:17:58;;;;;;;10.03;3.17;;;11.40;1.00;;;;;;5033395;28;20237;-62
2021/08/27 02:20:25;;;;;;;9.27;3.27;;;11.40;1.00;;;;;;5033204;28;20202;-61
2021/08/27 02:22:54;;;;;;;6.27;2.80;;;11.40;1.00;;;;;;5033395;28;20252;-62
2021/08/27 02:25:28;;;;;;;12.47;3.30;;;11.40;1.00;;;;;;5033185;28;20210;-62
2021/08/27 02:27:56;;;;;;;7.37;2.67;;;11.40;1.00;;;;;;5033150;28;20206;-62
2021/08/27 02:30:23;;;;;;;11.53;2.63;;;11.40;1.00;;;;;;5033164;28;20222;-62
2021/08/27 02:32:51;;;;;;;9.17;2.97;;;11.40;1.00;;;;;;5032975;28;20288;-62
2021/08/27 02:35:19;;;;;;;11.70;2.80;;;11.40;1.00;;;;;;5032625;28;20210;-62
2021/08/27 02:37:49;;;;;;;9.67;3.03;;;11.30;1.00;;;;;;5032891;28;20753;-62
2021/08/27 02:40:16;;;;;;;9.77;3.13;;;11.30;1.00;;;;;;5033321;28;20206;-61
2021/08/27 02:42:44;;;;;;;7.57;2.93;;;11.30;1.00;;;;;;5033078;28;20226;-62
2021/08/27 02:45:11;;;;;;;8.03;3.20;;;11.30;1.00;;;;;;5032936;28;20252;-62
2021/08/27 02:47:38;;;;;;;13.57;3.60;;;11.30;1.00;;;;;;5032855;28;20206;-62
2021/08/27 02:50:06;;;;;;;10.80;3.17;;;11.30;1.00;;;;;;5032837;28;20289;-62
2021/08/27 02:52:38;;;;;;;9.23;3.10;;;11.40;1.00;;;;;;5032801;28;20222;-62
2021/08/27 02:55:09;;;;;;;6.80;2.50;;;11.40;1.00;;;;;;5032951;28;20625;-61
2021/08/27 02:57:43;;;;;;;13.33;3.40;;;11.40;1.00;;;;;;5032796;28;20233;-61
2021/08/27 03:00:12;;;;;;;11.83;3.83;;;11.40;1.00;;;;;;5032723;28;20273;-61
2021/08/27 03:02:41;;;;;;;11.33;3.13;;;11.40;1.00;;;;;;5032644;28;20226;-62
2021/08/27 03:05:12;;;;;;;10.33;3.00;;;11.40;1.00;;;;;;5032466;28;20264;-61
2021/08/27 03:07:42;;;;;;;9.07;3.33;;;11.50;1.00;;;;;;5032382;28;20689;-61
2021/08/27 03:10:15;;;;;;;13.27;3.27;;;11.50;1.00;;;;;;5032421;28;20769;-62
2021/08/27 03:12:53;;;;;;;10.77;3.20;;;11.60;1.00;;;;;;5032144;28;20641;-61
2021/08/27 03:15:29;;;;;;;14.57;3.33;;;11.60;1.00;;;;;;5032398;28;20276;-61
2021/08/27 03:18:03;;;;;;;10.73;3.10;;;11.70;1.00;;;;;;5032236;28;20260;-62
2021/08/27 03:20:51;;;;;;;10.77;3.30;;;11.70;1.00;;;;;;5032308;28;20202;-61
2021/08/27 03:23:20;;;;;;;13.30;3.87;;;11.70;1.00;;;;;;5032024;28;20647;-61
2021/08/27 03:25:48;;;;;;;13.10;3.73;;;11.70;1.00;;;;;;5032310;28;20285;-61
2021/08/27 03:28:19;;;;;;;16.77;3.40;;;11.70;1.00;;;;;;5032341;28;20202;-64
2021/08/27 03:30:50;;;;;;;5.67;3.00;;;11.70;1.00;;;;;;5032114;28;20225;-62
2021/08/27 03:33:20;;;;;;;8.47;3.23;;;11.60;13.80;;;;;;5032159;28;20234;-62
2021/08/27 03:35:50;;;;;;;14.90;3.63;;;11.60;23.80;;;;;;5031974;28;20214;-62
2021/08/27 03:38:18;;;;;;;6.50;3.30;;;11.70;29.50;;;;;;5032467;28;20214;-61
2021/08/27 03:40:46;;;;;;;9.57;3.40;;;11.70;28.00;;;;;;5032268;28;20626;-62
2021/08/27 03:43:15;;;;;;;10.43;2.90;;;11.80;22.70;;;;;;5032367;28;20257;-61
2021/08/27 03:45:42;;;;;;;9.60;3.40;;;11.80;21.60;;;;;;5032187;28;20239;-62
2021/08/27 03:48:10;;;;;;;7.83;3.13;;;11.80;16.50;;;;;;5032013;28;20264;-61
2021/08/27 03:50:37;;;;;;;9.73;3.40;;;11.80;14.00;;;;;;5031590;28;20730;-61
2021/08/27 03:53:07;;;;;;;10.20;3.77;;;11.80;24.40;;;;;;5031881;28;20235;-62
2021/08/27 03:55:34;;;;;;;9.03;3.37;;;11.80;26.80;;;;;;5031713;28;20206;-62
2021/08/27 03:58:02;;;;;;;11.17;3.53;;;11.70;46.00;;;;;;5031761;28;20206;-62
2021/08/27 04:00:29;;;;;;;19.33;4.13;;;11.70;59.80;;;;;;5031763;28;20627;-62
2021/08/27 04:02:58;;;;;;;8.33;3.63;;;11.60;71.50;;;;;;5035711;28;20638;-61
2021/08/27 04:05:26;;;;;;;7.30;3.53;;;11.60;81.70;;;;;;5035919;28;20207;-61
2021/08/27 04:07:52;;;;;;;9.00;3.83;;;11.60;88.40;;;;;;5035693;28;20626;-61
2021/08/27 04:10:21;;;;;;;11.40;4.27;;;11.60;91.80;;;;;;5035702;28;20226;-62
2021/08/27 04:12:48;;;;;;;14.50;4.10;;;11.60;94.10;;;;;;5035485;28;20226;-61
2021/08/27 04:15:17;;;;;;;9.77;4.57;;;11.60;95.50;;;;;;5035444;28;20210;-62
2021/08/27 04:17:45;;;;;;;6.13;3.77;;;11.50;99.90;;;;;;5035742;28;20280;-62
2021/08/27 04:20:14;;;;;;;6.90;3.63;;;11.60;99.90;;;;;;5035606;28;20206;-62
2021/08/27 04:22:42;;;;;;;13.27;3.67;;;11.60;99.90;;;;;;5035548;28;20300;-61
2021/08/27 04:25:10;;;;;;;11.10;4.17;;;11.60;99.90;;;;;;5035448;28;20237;-62
2021/08/27 04:27:36;;;;;;;7.90;3.83;;;11.70;99.90;;;;;;5035256;28;20694;-62
2021/08/27 04:30:04;;;;;;;8.57;3.70;;;11.80;99.90;;;;;;5035286;28;20643;-62
2021/08/27 04:32:31;;;;;;;12.23;4.30;;;11.70;99.90;;;;;;5035291;28;20300;-62
2021/08/27 04:34:57;;;;;;;9.57;4.10;;;11.70;99.90;;;;;;5035030;28;20627;-62
2021/08/27 04:37:24;;;;;;;10.73;4.23;;;11.60;99.90;;;;;;5035213;28;20257;-61
2021/08/27 04:39:52;;;;;;;14.83;4.43;;;11.60;99.90;;;;;;5035128;28;20622;-62
2021/08/27 04:42:19;;;;;;;9.27;4.63;;;11.60;99.90;;;;;;5034866;28;20292;-61
2021/08/27 04:44:45;;;;;;;12.77;4.57;;;11.60;99.90;;;;;;5035028;28;20217;-62
2021/08/27 04:47:12;;;;;;;10.43;4.30;;;11.70;99.90;;;;;;5035107;28;20264;-62
2021/08/27 04:49:38;;;;;;;11.90;4.70;;;11.70;99.90;;;;;;5034617;28;20218;-61
2021/08/27 04:52:06;;;;;;;12.20;4.73;;;11.70;99.90;;;;;;5034931;28;20230;-62
2021/08/27 04:54:33;;;;;;;13.50;4.93;;;11.70;99.90;;;;;;5034595;28;20591;-62
2021/08/27 04:57:01;;;;;;;11.27;4.73;;;11.70;99.90;;;;;;5034702;28;20206;-61
2021/08/27 04:59:27;;;;;;;12.83;4.90;;;11.80;99.90;;;;;;5035082;28;20622;-62
2021/08/27 05:01:54;;;;;;;12.90;4.53;;;11.80;99.90;;;;;;5034778;28;20230;-62
2021/08/27 05:04:21;;;;;;;10.77;4.70;;;11.90;99.90;;;;;;5034680;28;20342;-60
2021/08/27 05:06:47;;;;;;;13.83;4.33;;;11.90;99.90;;;;;;5034902;28;20210;-61
2021/08/27 05:09:17;;;;;;;14.20;5.10;;;11.90;99.90;;;;;;5034794;28;20559;-62
2021/08/27 05:11:43;;;;;;;13.67;4.63;;;11.90;99.90;;;;;;5034496;28;20231;-61
2021/08/27 05:14:11;;;;;;;13.60;4.27;;;11.90;99.90;;;;;;5034581;28;20237;-62
2021/08/27 05:16:38;;;;;;;15.27;4.83;;;11.90;99.90;;;;;;5034767;28;20240;-62
2021/08/27 05:19:05;;;;;;;9.90;4.07;;;11.90;99.90;;;;;;5034687;28;20210;-61
2021/08/27 05:21:31;;;;;;;9.17;4.40;;;12.00;99.90;;;;;;5034423;28;20267;-60
2021/08/27 05:23:58;;;;;;;10.47;4.47;;;12.00;99.90;;;;;;5034096;28;20349;-61
2021/08/27 05:26:25;;;;;;;11.17;4.50;;;12.00;99.90;;;;;;5034551;28;20214;-62
2021/08/27 05:28:51;;;;;;;12.37;4.30;;;12.10;99.90;;;;;;5034341;28;20654;-61
2021/08/27 05:31:19;;;;;;;14.00;4.23;;;12.10;99.90;;;;;;5034217;28;20227;-62
2021/08/27 05:33:46;;;;;;;9.87;4.00;;;12.10;99.90;;;;;;5033959;28;20261;-61
2021/08/27 05:36:12;;;;;;;11.30;4.50;;;12.10;99.90;;;;;;5034109;28;20216;-62
2021/08/27 05:38:39;;;;;;;10.80;3.90;;;12.20;99.90;;;;;;5033674;28;20203;-62
2021/08/27 05:41:06;;;;;;;9.87;3.97;;;12.20;99.90;;;;;;5034149;28;20228;-62
2021/08/27 05:43:33;;;;;;;12.23;4.30;;;12.20;99.90;;;;;;5033507;28;20736;-62
2021/08/27 05:46:00;;;;;;;9.07;3.53;;;12.30;99.90;;;;;;5033838;28;20258;-61
2021/08/27 05:48:28;;;;;;;9.23;4.10;;;12.40;99.90;;;;;;5033716;28;20211;-62
2021/08/27 05:50:55;;;;;;;8.33;3.80;;;12.40;99.90;;;;;;5033510;28;20272;-61
2021/08/27 05:53:22;;;;;;;13.53;3.30;;;12.50;99.90;;;;;;5033390;28;20234;-62
2021/08/27 05:55:49;;;;;;;8.10;3.13;;;12.50;99.90;;;;;;5033629;28;20208;-61
2021/08/27 05:58:15;;;;;;;7.37;3.43;;;12.50;99.90;;;;;;5033727;28;20616;-62
2021/08/27 06:00:42;;;;;;;9.43;4.07;;;12.50;99.90;;;;;;5033541;28;20206;-62
2021/08/27 06:03:09;;;;;;;11.57;5.10;;;12.60;99.90;;;;;;5033370;28;20227;-62
2021/08/27 06:05:38;;;;;;;14.37;4.53;;;12.60;99.90;;;;;;5033197;28;20677;-62
2021/08/27 06:08:04;;;;;;;12.53;3.80;;;12.60;99.90;;;;;;5033530;28;20555;-62
2021/08/27 06:10:31;;;;;;;10.33;4.00;;;12.70;99.90;;;;;;5033309;28;20289;-61
2021/08/27 06:12:58;;;;;;;15.27;4.13;;;12.70;90.60;;;;;;5031602;28;20703;-62
2021/08/27 06:15:24;;;;;;;7.90;3.37;;;12.70;89.60;;;;;;5039054;28;20207;-62
2021/08/27 06:17:51;;;;;;;9.90;3.47;;;12.70;68.90;;;;;;5033119;28;20259;-62
2021/08/27 06:20:18;;;;;;;10.80;3.60;;;12.80;76.30;;;;;;5032917;28;20266;-63
2021/08/27 06:22:46;;;;;;;13.87;4.13;;;12.80;63.60;;;;;;5033116;28;20224;-63
2021/08/27 06:25:12;;;;;;;9.13;3.73;;;12.80;56.10;;;;;;5032368;28;20283;-62
2021/08/27 06:27:39;;;;;;;12.13;3.60;;;12.90;10.50;;;;;;5032944;28;20211;-61
2021/08/27 06:30:08;;;;;;;6.53;3.60;;;12.90;17.00;;;;;;5032812;28;20663;-62
2021/08/27 06:32:35;;;;;;;10.13;3.43;;;12.90;1.00;;;;;;5032726;28;20273;-62
2021/08/27 06:35:01;;;;;;;8.07;4.33;;;12.90;1.00;;;;;;5032879;28;20209;-62
2021/08/27 06:40:11;;;;;;;10.70;3.73;;;13.00;1.00;;;;;;5031692;28;20199;-62
2021/08/27 06:42:38;;;;;;;10.03;3.93;;;13.00;1.00;;;;;;5032532;28;20278;-61
2021/08/27 06:45:06;;;;;;;7.43;4.10;;;13.10;1.00;;;;;;5032419;28;20627;-62
2021/08/27 06:47:33;;;;;;;9.93;4.63;;;13.20;1.00;;;;;;5032556;28;20702;-62
2021/08/27 06:49:59;;;;;;;10.80;5.03;;;13.30;1.00;;;;;;5032597;28;20229;-62
2021/08/27 06:52:27;;;;;;;8.17;4.93;;;13.30;1.00;;;;;;5032429;28;20301;-63
2021/08/27 06:54:53;;;;;;;10.20;5.00;;;13.40;1.00;;;;;;5028355;28;20209;-64
2021/08/27 06:57:21;;;;;;;13.10;4.77;;;13.50;99.90;;;;;;5032129;28;20628;-63
2021/08/27 06:59:48;;;;;;;11.83;4.87;;;13.50;99.90;;;;;;5031645;28;20213;-63
2021/08/27 07:02:15;;;;;;;11.23;4.67;;;13.50;99.90;;;;;;5032398;28;20233;-63
2021/08/27 07:04:41;;;;;;;8.47;4.63;;;13.60;99.90;;;;;;5031969;28;20209;-64
2021/08/27 07:07:08;;;;;;;10.10;5.50;;;13.70;1.00;;;;;;5032159;28;20614;-61
2021/08/27 07:09:35;;;;;;;9.20;4.77;;;13.90;1.00;;;;;;5031954;28;20328;-67
2021/08/27 07:12:01;;;;;;;11.70;5.30;;;13.90;99.90;;;;;;5031901;28;20230;-66
2021/08/27 07:14:29;;;;;;;10.53;5.23;;;14.00;99.90;;;;;;5031531;28;20218;-67
2021/08/27 07:16:58;;;;;;;12.37;5.63;;;14.00;1.00;;;;;;5031778;28;20210;-66
2021/08/27 07:19:25;;;;;;;8.23;4.87;;;14.00;1.00;;;;;;5032223;28;20581;-68
2021/08/27 07:21:51;;;;;;;9.00;4.53;;;14.00;99.90;;;;;;5031505;28;20781;-66
2021/08/27 07:24:18;;;;;;;10.83;5.10;;;14.10;99.90;;;;;;5031464;28;20748;-69
2021/08/27 07:26:45;;;;;;;9.00;4.43;;;14.10;99.90;;;;;;5031869;28;20206;-67
2021/08/27 07:29:34;;;;;;;8.90;4.57;;;14.20;91.70;;;;;;5031785;28;20214;-68
2021/08/27 07:32:03;;;;;;;8.93;5.30;;;14.20;36.50;;;;;;5031277;28;20257;-64
2021/08/27 07:34:29;;;;;;;8.10;5.00;;;14.30;99.90;;;;;;5031362;28;20207;-65
2021/08/27 07:36:56;;;;;;;10.40;4.30;;;14.40;1.00;;;;;;5030645;28;20214;-65
2021/08/27 07:39:22;;;;;;;11.70;5.47;;;14.50;1.00;;;;;;5031423;28;20206;-65
2021/08/27 07:41:49;;;;;;;12.10;7.13;;;14.50;99.90;;;;;;5031628;28;20287;-64
2021/08/27 07:44:16;;;;;;;7.23;4.00;;;14.50;99.90;;;;;;5030714;28;20207;-64
2021/08/27 07:46:42;;;;;;;7.93;4.07;;;14.60;99.90;;;;;;5031468;28;20229;-66
2021/08/27 07:49:10;;;;;;;7.50;3.87;;;14.60;82.60;;;;;;5031424;28;20210;-66
2021/08/27 07:51:37;;;;;;;9.83;5.60;;;14.70;99.90;;;;;;5031373;28;20230;-66
2021/08/27 07:54:04;;;;;;;14.10;7.20;;;14.70;28.60;;;;;;5030739;28;20268;-66
2021/08/27 07:56:30;;;;;;;15.40;7.87;;;14.60;80.40;;;;;;5031586;28;20667;-66
2021/08/27 07:58:57;;;;;;;17.53;10.00;;;14.70;99.90;;;;;;5031295;28;20209;-63
2021/08/27 08:01:23;;;;;;;10.87;8.90;;;14.70;99.90;;;;;;5031106;28;20216;-63
2021/08/27 08:03:50;;;;;;;16.20;10.70;;;14.80;99.90;;;;;;5030849;28;20202;-62
2021/08/27 08:06:18;;;;;;;12.13;8.43;;;14.80;1.00;;;;;;5031050;28;20210;-63
2021/08/27 08:08:44;;;;;;;16.27;9.83;;;14.80;99.90;;;;;;5031157;28;20206;-62
2021/08/27 08:11:11;;;;;;;17.60;9.50;;;15.00;72.20;;;;;;5031349;28;20307;-62
2021/08/27 08:13:38;;;;;;;16.10;10.40;;;15.10;1.00;;;;;;5030683;28;20284;-64
2021/08/27 08:16:05;;;;;;;14.20;9.63;;;15.20;99.90;;;;;;5031183;28;20563;-64
2021/08/27 08:18:31;;;;;;;13.50;9.80;;;15.30;1.00;;;;;;5031160;28;20674;-62
2021/08/27 08:20:58;;;;;;;17.00;9.00;;;15.40;1.00;;;;;;5030644;28;20206;-65
2021/08/27 08:23:27;;;;;;;15.50;9.23;;;15.40;99.90;;;;;;5030901;28;20296;-64
2021/08/27 08:25:53;;;;;;;14.60;9.87;;;15.50;99.90;;;;;;5030986;28;20670;-66
2021/08/27 08:28:21;;;;;;;15.30;8.77;;;15.60;99.90;;;;;;5031055;28;20256;-67
2021/08/27 08:30:48;;;;;;;14.27;8.37;;;15.70;99.90;;;;;;5031014;28;20284;-65
2021/08/27 08:33:14;;;;;;;11.93;7.70;;;15.60;1.00;;;;;;5030589;28;20234;-66
2021/08/27 08:35:41;;;;;;;14.70;7.63;;;15.50;99.90;;;;;;5030527;28;20617;-65
2021/08/27 08:38:08;;;;;;;9.67;6.43;;;15.50;99.90;;;;;;5031325;28;20626;-65
2021/08/27 08:40:40;;;;;;;12.77;6.93;;;15.30;1.00;;;;;;5030627;28;20629;-66
2021/08/27 08:43:08;;;;;;;11.07;6.97;;;15.10;99.90;;;;;;5031036;28;20288;-65
2021/08/27 08:45:35;;;;;;;9.80;5.57;;;15.10;1.00;;;;;;5030642;28;20320;-66
2021/08/27 08:48:03;;;;;;;8.57;5.10;;;15.10;1.00;;;;;;5033449;28;20206;-65
2021/08/27 08:50:31;;;;;;;8.17;3.03;;;15.30;99.90;;;;;;5034549;28;20555;-63
2021/08/27 08:52:58;;;;;;;11.30;4.47;;;15.60;99.90;;;;;;5034630;28;20242;-64
2021/08/27 08:55:26;;;;;;;8.67;3.20;;;15.70;1.00;;;;;;5034261;28;20206;-64
2021/08/27 08:57:54;;;;;;;8.93;3.37;;;15.80;1.00;;;;;;5034384;28;20301;-64
2021/08/27 09:00:20;;;;;;;5.43;3.13;;;15.90;32.00;;;;;;5034446;28;20603;-64
2021/08/27 09:02:47;;;;;;;9.50;4.00;;;15.90;45.60;;;;;;5034272;28;20284;-64
2021/08/27 09:05:14;;;;;;;7.73;3.93;;;15.80;1.00;;;;;;5034230;28;20213;-64
2021/08/27 09:07:41;;;;;;;6.97;3.33;;;15.70;99.90;;;;;;5034516;28;20206;-64
2021/08/27 09:10:09;;;;;;;7.67;3.63;;;15.60;99.90;;;;;;5034427;28;20211;-64
2021/08/27 09:12:35;;;;;;;8.47;3.10;;;15.60;1.00;;;;;;5034012;28;20234;-64
2021/08/27 09:15:05;;;;;;;4.93;2.30;;;15.70;20.30;;;;;;5033986;28;20267;-65
2021/08/27 09:17:34;;;;;;;5.83;1.83;;;15.80;99.90;;;;;;5034554;28;20198;-65
2021/08/27 09:20:04;;;;;;;11.27;2.43;;;16.10;99.90;;;;;;5034326;28;20260;-65
2021/08/27 09:22:48;;;;;;;5.13;2.10;;;16.30;99.90;;;;;;5034108;28;20222;-65
2021/08/27 09:25:16;;;;;;;7.20;2.40;;;16.50;41.30;;;;;;5033749;28;20210;-65
2021/08/27 09:28:16;;;;;;;6.87;2.30;;;16.50;99.90;;;;;;5033865;28;20280;-65
2021/08/27 09:30:55;;;;;;;6.33;2.10;;;16.40;99.90;;;;;;5033996;28;20214;-65
2021/08/27 09:33:24;;;;;;;7.50;3.50;;;16.30;99.90;;;;;;5033816;28;20735;-65
2021/08/27 09:35:59;;;;;;;7.13;3.77;;;16.20;1.00;;;;;;5033353;28;20675;-65
2021/08/27 09:38:28;;;;;;;8.73;4.13;;;16.20;1.00;;;;;;5033652;28;20210;-65
2021/08/27 09:41:03;;;;;;;9.40;4.93;;;16.20;1.00;;;;;;5033515;28;20556;-65
2021/08/27 09:43:30;;;;;;;7.70;4.23;;;16.10;1.00;;;;;;5033101;28;20789;-64
2021/08/27 09:45:58;;;;;;;7.27;4.03;;;16.00;1.00;;;;;;5033361;28;20628;-65
2021/08/27 09:48:25;;;;;;;6.53;3.33;;;16.00;99.90;;;;;;5033420;28;20221;-65
2021/08/27 09:50:52;;;;;;;4.77;2.13;;;16.00;99.90;;;;;;5033320;28;20741;-65
2021/08/27 09:53:19;;;;;;;6.27;1.67;;;16.10;99.90;;;;;;5033470;28;20293;-65
2021/08/27 09:55:58;;;;;;;6.57;1.60;;;16.10;99.90;;;;;;5033093;28;20587;-65
2021/08/27 09:58:25;;;;;;;9.20;1.70;;;16.30;99.90;;;;;;5032438;28;20206;-64
2021/08/27 10:01:04;;;;;;;3.27;1.20;;;16.40;99.90;;;;;;5033650;28;20619;-65
2021/08/27 10:03:31;;;;;;;6.77;1.80;;;16.50;6.10;;;;;;5032671;28;20280;-64
2021/08/27 10:05:58;;;;;;;4.40;1.80;;;16.60;6.10;;;;;;5033330;28;20463;-65
2021/08/27 10:08:27;;;;;;;6.90;1.43;;;16.40;99.90;;;;;;5033094;28;20206;-66
2021/08/27 10:10:56;;;;;;;5.03;1.70;;;16.40;99.90;;;;;;5028832;28;20210;-63
2021/08/27 10:13:25;;;;;;;7.63;1.30;;;16.50;99.90;;;;;;5031809;28;20249;-65
2021/08/27 10:15:53;;;;;;;4.30;1.60;;;16.40;99.90;;;;;;5033116;28;20240;-63
2021/08/27 10:18:21;;;;;;;4.73;1.60;;;16.50;99.90;;;;;;5034166;28;20260;-63
2021/08/27 10:20:48;;;;;;;4.57;1.83;;;16.50;98.90;;;;;;5033987;28;20210;-67
2021/08/27 10:23:18;;;;;;;4.23;1.40;;;16.70;99.90;;;;;;5033293;28;20226;-69
2021/08/27 10:25:45;;;;;;;4.97;1.53;;;16.90;99.90;;;;;;5032681;28;20249;-66
2021/08/27 10:28:13;;;;;;;6.27;1.50;;;16.80;1.00;;;;;;5032743;28;20232;-62
2021/08/27 10:30:54;;;;;;;4.10;1.30;;;16.70;1.00;;;;;;5032948;28;20252;-62
2021/08/27 10:34:06;;;;;;;4.40;1.80;;;16.80;1.00;;;;;;5032890;28;20840;-62
2021/08/27 10:36:53;;;;;;;4.97;2.20;;;17.00;1.00;;;;;;5031002;28;20210;-62
2021/08/27 10:39:34;;;;;;;7.87;1.67;;;17.60;99.90;;;;;;5026293;28;20221;-63
2021/08/27 10:42:01;;;;;;;4.07;1.50;;;17.90;99.90;;;;;;5032114;28;20638;-62
2021/08/27 10:44:48;;;;;;;5.80;1.23;;;17.80;99.90;;;;;;5031816;28;20268;-62
2021/08/27 10:47:15;;;;;;;4.40;1.20;;;17.70;82.60;;;;;;5032520;28;20627;-63
2021/08/27 10:49:56;;;;;;;3.83;1.20;;;17.70;98.70;;;;;;5030830;28;20817;-65
2021/08/27 10:52:25;;;;;;;3.70;1.17;;;17.70;1.00;;;;;;5032375;28;20233;-64
2021/08/27 10:55:11;;;;;;;5.93;1.77;;;17.90;95.10;;;;;;5032232;28;20203;-63
2021/08/27 10:57:47;;;;;;;5.97;1.70;;;18.20;1.00;;;;;;5032155;28;20213;-63
2021/08/27 11:00:14;;;;;;;4.17;1.80;;;18.40;1.00;;;;;;5032415;28;20264;-63
2021/08/27 11:02:54;;;;;;;3.67;2.00;;;18.40;1.00;;;;;;5032293;28;20226;-63
2021/08/27 11:05:50;;;;;;;5.20;2.80;;;18.20;1.00;;;;;;5031965;28;20202;-63
2021/08/27 11:08:18;;;;;;;8.17;3.10;;;17.90;1.00;;;;;;5032389;28;20210;-63
2021/08/27 11:11:00;;;;;;;6.77;2.43;;;17.50;8.80;;;;;;5031976;28;20203;-63
2021/08/27 11:13:35;;;;;;;5.47;2.07;;;17.30;99.90;;;;;;5031328;28;20710;-63
2021/08/27 11:16:25;;;;;;;4.37;1.90;;;17.20;99.90;;;;;;5031831;28;20260;-63
2021/08/27 11:18:53;;;;;;;7.40;1.37;;;17.40;1.00;;;;;;5031865;28;20564;-63
2021/08/27 11:21:31;;;;;;;5.20;1.40;;;17.80;99.90;;;;;;5031891;28;20210;-63
2021/08/27 11:24:17;;;;;;;2.50;0.97;;;18.10;26.20;;;;;;5031445;28;20225;-64
2021/08/27 11:26:47;;;;;;;2.93;0.97;;;18.30;1.00;;;;;;5031913;28;20241;-63
2021/08/27 11:29:32;;;;;;;4.47;1.20;;;18.40;1.00;;;;;;5031818;28;20203;-63
2021/08/27 11:32:07;;;;;;;3.97;1.07;;;18.60;1.00;;;;;;5031798;28;20588;-63
2021/08/27 11:34:51;;;;;;;2.77;1.00;;;18.90;1.00;;;;;;5031467;28;20255;-64
2021/08/27 11:37:19;;;;;;;3.97;1.60;;;18.80;1.00;;;;;;5031586;28;20671;-63
2021/08/27 11:39:48;;;;;;;3.50;1.00;;;18.80;1.00;;;;;;5031982;28;20210;-62
2021/08/27 11:42:15;;;;;;;3.70;1.37;;;18.60;1.00;;;;;;5031514;28;20628;-62
2021/08/27 11:44:43;;;;;;;3.90;1.20;;;18.30;1.00;;;;;;5031350;28;20211;-62
2021/08/27 11:47:12;;;;;;;5.33;1.60;;;18.00;9.00;;;;;;5031369;28;20208;-62
2021/08/27 11:49:45;;;;;;;5.20;1.77;;;17.80;9.00;;;;;;5031710;28;20218;-62
2021/08/27 11:52:25;;;;;;;7.13;1.43;;;17.70;73.10;;;;;;5031412;28;20222;-63
2021/08/27 11:54:59;;;;;;;4.87;1.50;;;17.50;1.00;;;;;;5031068;28;20620;-62
2021/08/27 11:57:26;;;;;;;4.37;1.80;;;17.40;8.60;;;;;;5031378;28;20202;-62
2021/08/27 12:00:04;;;;;;;5.43;1.70;;;17.40;1.00;;;;;;5031315;28;20240;-62
2021/08/27 12:02:31;;;;;;;3.87;1.70;;;17.50;1.00;;;;;;5031423;28;20245;-63
2021/08/27 12:04:59;;;;;;;5.67;1.60;;;17.60;1.00;;;;;;5031101;28;20210;-63
2021/08/27 12:07:29;;;;;;;3.27;1.70;;;17.80;1.00;;;;;;5030541;28;20620;-64
2021/08/27 12:10:10;;;;;;;2.20;1.33;;;18.00;1.00;;;;;;5030625;28;20248;-65
2021/08/27 12:12:38;;;;;;;3.93;1.20;;;18.10;1.00;;;;;;5031020;28;20300;-64
2021/08/27 12:15:08;;;;;;;2.47;1.27;;;18.00;1.00;;;;;;5029844;28;20582;-65
2021/08/27 12:17:34;;;;;;;4.73;1.70;;;17.90;1.00;;;;;;5030746;28;20210;-64
2021/08/27 12:20:05;;;;;;;6.60;2.13;;;17.80;1.00;;;;;;5030786;28;20213;-64
2021/08/27 12:22:38;;;;;;;3.67;1.40;;;17.80;20.30;;;;;;5033094;28;20711;-64
2021/08/27 12:25:06;;;;;;;2.60;1.13;;;17.80;1.00;;;;;;5034646;28;20577;-62
2021/08/27 12:27:32;;;;;;;4.60;1.37;;;17.80;1.00;;;;;;5034504;28;20229;-62
2021/08/27 12:30:10;;;;;;;3.00;1.00;;;17.70;1.00;;;;;;5033502;28;20287;-63
2021/08/27 12:32:38;;;;;;;1.60;1.00;;;17.80;1.00;;;;;;5033785;28;20651;-64
2021/08/27 12:35:07;;;;;;;3.20;1.10;;;18.00;1.00;;;;;;5034383;28;20206;-63
2021/08/27 12:37:36;;;;;;;3.17;1.10;;;18.20;1.00;;;;;;5034972;28;20683;-64
2021/08/27 12:40:07;;;;;;;6.77;1.60;;;18.50;1.00;;;;;;5035490;28;20206;-63
2021/08/27 12:42:34;;;;;;;4.07;1.33;;;18.40;1.00;;;;;;5034904;28;20226;-68
2021/08/27 12:45:02;;;;;;;16.63;9.87;;;18.20;1.00;;;;;;5034675;28;20573;-63
2021/08/27 12:47:34;;;;;;;6.70;4.73;;;17.90;1.00;;;;;;5034662;28;20679;-65
2021/08/27 12:50:03;;;;;;;7.80;1.93;;;17.80;1.00;;;;;;5035068;28;20264;-65
2021/08/27 12:52:30;;;;;;;3.10;1.23;;;17.90;1.00;;;;;;5034552;28;20702;-66
2021/08/27 12:54:58;;;;;;;2.67;0.97;;;17.90;1.00;;;;;;5034775;28;20264;-66
2021/08/27 12:57:25;;;;;;;4.73;1.10;;;17.90;52.40;;;;;;5034629;28;20217;-66
2021/08/27 12:59:57;;;;;;;7.73;1.60;;;18.00;1.00;;;;;;5035089;28;20225;-66
2021/08/27 13:02:24;;;;;;;3.70;1.27;;;18.20;1.00;;;;;;5034432;28;20276;-65